Ana Sayfa
METAR-TAF:

METAR-TAF

Havaalanları :

Mesquite, Teksas, Amerika Birleşik Devletleri

Enlem: 32-44-49N, Boylam: 096-31-49W, yükseklik: 136 m

Güncel hava durumu gözlemi

Rapor saat 20:50 UTC de 21 dakika önce yapıldı.
Rüzgar doğu/güneydoğudan 10 kt
Sıcaklık 12°C
Nem 94%
Basınç 1015 hPa
Görüş mesafesi: 3.2 km
500 ft yükseklikte çok bulutlu
hafif yağmur, Pus

METAR: KHQZ 232050Z 12010KT 2SM -RA BR OVC005 12/11 A2998

Saat: 15:11 (21:11 UTC)


TAF: eksik

4.000'den fazla havaalanı için hava durumu gözlemleri ve tahminleri (METAR ve TAF raporları).

Kullanılabilir istasyonlar harita üzerinde sarı ve kırmızı noktalarla gösterilir.

İstasyonun adını görmek için fareyi noktanın üzerinde gezdirin.

Sonrasında hava gözlem ve tahminlerini görmek için tıklayın.

Haritayı değiştirmek için: yaklaştırmak için siyah artı işaretli yeşil düğmeye ve uzaklaştırmak için de eksi işaretli düğmeye hızla tıklayın; bitişik haritalar için yeşil okları kullanın.


METAR-TAF: